Home > Products > Valid Products > TAF

000
FTUS45 KBOU 300531 CCA
TAFDEN
TAF COR
KDEN 300531Z 3006/0112 35006KT 2SM -SN BR SCT004 OVC010
      TEMPO 3006/3007 3/4SM -SN BR VV004
     FM300800 32008KT 5SM -SN BR BKN014 OVC025
     FM300900 33008KT P6SM VCSH SCT015 OVC030
      TEMPO 3009/3011 4SM -SN BR BKN014
     FM301100 32010KT 2SM BR VCSH SCT013 OVC028
      TEMPO 3011/3015 1/2SM -SN FZFG BKN006
     FM301700 36009KT P6SM VCSH SCT010 OVC025
      TEMPO 3018/3022 2SM -SN BR OVC014
     FM302200 36012G20KT P6SM VCSH SCT010 OVC020
      TEMPO 3022/0102 2SM -SN BR FEW005 OVC010
     FM010600 34008KT 3SM BR SCT004 OVC010=



000
FTUS45 KBOU 300531 CCA
TAFDEN
TAF COR
KDEN 300531Z 3006/0112 35006KT 2SM -SN BR SCT004 OVC010
      TEMPO 3006/3007 3/4SM -SN BR VV004
     FM300800 32008KT 5SM -SN BR BKN014 OVC025
     FM300900 33008KT P6SM VCSH SCT015 OVC030
      TEMPO 3009/3011 4SM -SN BR BKN014
     FM301100 32010KT 2SM BR VCSH SCT013 OVC028
      TEMPO 3011/3015 1/2SM -SN FZFG BKN006
     FM301700 36009KT P6SM VCSH SCT010 OVC025
      TEMPO 3018/3022 2SM -SN BR OVC014
     FM302200 36012G20KT P6SM VCSH SCT010 OVC020
      TEMPO 3022/0102 2SM -SN BR FEW005 OVC010
     FM010600 34008KT 3SM BR SCT004 OVC010=



000
FTUS45 KBOU 300520
TAFAPA
TAF
KAPA 300520Z 3006/0106 01007KT 3SM -SN BR SCT004 BKN014 OVC020
      TEMPO 3006/3007 1SM -SN BR BKN004 OVC014
     FM300800 34008KT 4SM -SN BR SCT008 BKN014 OVC025
     FM300900 33008KT P6SM VCSH SCT015 OVC030
      TEMPO 3009/3011 4SM -SN BR BKN014
     FM301100 32010KT 2SM BR VCSH SCT013 OVC028
      TEMPO 3011/3015 1/2SM -SN FZFG BKN006
     FM301700 36009KT P6SM VCSH SCT010 OVC025
      TEMPO 3018/3022 2SM -SN BR OVC014
     FM302200 36012G20KT P6SM VCSH SCT010 OVC020
      TEMPO 3022/0102 2SM -SN BR FEW005 OVC010=



000
FTUS45 KBOU 300520
TAFBJC
TAF
KBJC 300520Z 3006/0106 36005KT 3SM -SN BR SCT002 BKN007 OVC014
      TEMPO 3006/3007 1SM -SN BR BKN002 OVC007
     FM300800 34008KT 4SM -SN BR SCT004 BKN014 OVC020
     FM300900 33008KT P6SM VCSH SCT015 OVC030
      TEMPO 3009/3011 4SM -SN BR BKN014
     FM301100 32010KT 2SM BR VCSH SCT013 OVC028
      TEMPO 3011/3015 1/2SM -SN FZFG BKN006
     FM301700 36009KT P6SM VCSH SCT010 OVC025
      TEMPO 3018/3022 2SM -SN BR OVC014
     FM302200 36012G20KT P6SM VCSH SCT010 OVC020
      TEMPO 3022/0102 2SM -SN BR FEW005 OVC010=



000
FTUS45 KBOU 300520
TAFAPA
TAF
KAPA 300520Z 3006/0106 01007KT 3SM -SN BR SCT004 BKN014 OVC020
      TEMPO 3006/3007 1SM -SN BR BKN004 OVC014
     FM300800 34008KT 4SM -SN BR SCT008 BKN014 OVC025
     FM300900 33008KT P6SM VCSH SCT015 OVC030
      TEMPO 3009/3011 4SM -SN BR BKN014
     FM301100 32010KT 2SM BR VCSH SCT013 OVC028
      TEMPO 3011/3015 1/2SM -SN FZFG BKN006
     FM301700 36009KT P6SM VCSH SCT010 OVC025
      TEMPO 3018/3022 2SM -SN BR OVC014
     FM302200 36012G20KT P6SM VCSH SCT010 OVC020
      TEMPO 3022/0102 2SM -SN BR FEW005 OVC010=



000
FTUS45 KBOU 300520
TAFDEN
TAF
KDEN 300520Z 3006/0112 35006KT 3SM -SN BR SCT003 BKN013 OVC020
      TEMPO 3006/3007 1SM -SN BR SCT003 BKN010
     FM300800 32008KT 5SM -SN BR BKN014 OVC025
     FM300900 33008KT P6SM VCSH SCT015 OVC030
      TEMPO 3009/3011 4SM -SN BR BKN014
     FM301100 32010KT 2SM BR VCSH SCT013 OVC028
      TEMPO 3011/3015 1/2SM -SN FZFG BKN006
     FM301700 36009KT P6SM VCSH SCT010 OVC025
      TEMPO 3018/3022 2SM -SN BR OVC014
     FM302200 36012G20KT P6SM VCSH SCT010 OVC020
      TEMPO 3022/0102 2SM -SN BR FEW005 OVC010
     FM010600 34008KT 3SM BR SCT004 OVC010=



000
FTUS45 KBOU 300520
TAFBJC
TAF
KBJC 300520Z 3006/0106 36005KT 3SM -SN BR SCT002 BKN007 OVC014
      TEMPO 3006/3007 1SM -SN BR BKN002 OVC007
     FM300800 34008KT 4SM -SN BR SCT004 BKN014 OVC020
     FM300900 33008KT P6SM VCSH SCT015 OVC030
      TEMPO 3009/3011 4SM -SN BR BKN014
     FM301100 32010KT 2SM BR VCSH SCT013 OVC028
      TEMPO 3011/3015 1/2SM -SN FZFG BKN006
     FM301700 36009KT P6SM VCSH SCT010 OVC025
      TEMPO 3018/3022 2SM -SN BR OVC014
     FM302200 36012G20KT P6SM VCSH SCT010 OVC020
      TEMPO 3022/0102 2SM -SN BR FEW005 OVC010=



000
FTUS45 KBOU 300301 AAA
TAFDEN
TAF AMD
KDEN 300301Z 3003/0106 34008KT 4SM -SN BR OVC005
      TEMPO 3003/3005 1SM -SN BR BKN002
     FM300500 33007KT 3SM -SN BR BKN010 OVC020
     FM300600 32008KT 5SM -SN BR BKN014 OVC025
     FM300800 33008KT P6SM VCSH SCT015 OVC030
      TEMPO 3008/3011 4SM -SN BR BKN014
     FM301100 32010KT 2SM BR VCSH SCT013 OVC028
      TEMPO 3011/3015 1/2SM -SN FZFG BKN006
     FM301700 36009KT P6SM VCSH SCT010 OVC025
      TEMPO 3018/3022 2SM -SN BR OVC014=



000
FTUS45 KBOU 300301 AAA
TAFDEN
TAF AMD
KDEN 300301Z 3003/0106 34008KT 4SM -SN BR OVC005
      TEMPO 3003/3005 1SM -SN BR BKN002
     FM300500 33007KT 3SM -SN BR BKN010 OVC020
     FM300600 32008KT 5SM -SN BR BKN014 OVC025
     FM300800 33008KT P6SM VCSH SCT015 OVC030
      TEMPO 3008/3011 4SM -SN BR BKN014
     FM301100 32010KT 2SM BR VCSH SCT013 OVC028
      TEMPO 3011/3015 1/2SM -SN FZFG BKN006
     FM301700 36009KT P6SM VCSH SCT010 OVC025
      TEMPO 3018/3022 2SM -SN BR OVC014=



000
FTUS45 KBOU 292339
TAFBJC
TAF
KBJC 292339Z 3000/3024 34007KT 1 1/2SM -SN BR BKN005 OVC015
      TEMPO 3000/3002 3/4SM -SN BR BKN004
     FM300200 32006KT 3SM -SN BR BKN010 OVC020
     FM300500 31005KT 5SM -SN BR BKN014 OVC025
     FM300800 32008KT P6SM VCSH SCT015 OVC030
      TEMPO 3008/3011 4SM -SN BR BKN014
     FM301100 31008KT 2SM BR VCSH SCT013 OVC028
      TEMPO 3011/3015 1/2SM -SN FZFG BKN006
     FM301700 36009KT P6SM VCSH SCT010 OVC025
      TEMPO 3018/3022 2SM -SN BR OVC014=



000
FTUS45 KBOU 292339
TAFAPA
TAF
KAPA 292339Z 3000/3024 35008KT 2SM -SN BR BKN005 OVC015
      TEMPO 3000/3002 3/4SM -SN BR BKN004
     FM300200 33007KT 3SM -SN BR BKN010 OVC020
     FM300500 32008KT 5SM -SN BR BKN014 OVC025
     FM300800 33008KT P6SM VCSH SCT015 OVC030
      TEMPO 3008/3011 4SM -SN BR BKN014
     FM301100 32010KT 2SM BR VCSH SCT013 OVC028
      TEMPO 3011/3015 1/2SM -SN FZFG BKN006
     FM301700 36009KT P6SM VCSH SCT010 OVC025
      TEMPO 3018/3022 2SM -SN BR OVC014=



000
FTUS45 KBOU 292339
TAFDEN
TAF
KDEN 292339Z 3000/0106 34008KT 2SM -SN BR BKN006 OVC020
      TEMPO 3000/3002 3/4SM -SN BR BKN004
     FM300200 33007KT 3SM -SN BR BKN010 OVC020
     FM300500 32008KT 5SM -SN BR BKN014 OVC025
     FM300800 33008KT P6SM VCSH SCT015 OVC030
      TEMPO 3008/3011 4SM -SN BR BKN014
     FM301100 32010KT 2SM BR VCSH SCT013 OVC028
      TEMPO 3011/3015 1/2SM -SN FZFG BKN006
     FM301700 36009KT P6SM VCSH SCT010 OVC025
      TEMPO 3018/3022 2SM -SN BR OVC014=



000
FTUS45 KBOU 292013 AAA
TAFBJC
TAF AMD
KBJC 292013Z 2920/3018 02005KT 3/4SM -SN BR OVC005
      TEMPO 2920/2922 1/4SM SN FG OVC002
     FM292200 05007KT 1SM -SN BR BKN005 OVC009
     FM292300 02006KT 1SM -SN BR BKN004 OVC010
     FM300200 01007KT 3SM -SN BR BKN012 OVC020
     FM300500 35008KT 6SM BR SCT014 OVC025
      TEMPO 3005/3009 3SM -SN BR BKN006=



000
FTUS45 KBOU 292013 AAA
TAFDEN
TAF AMD
KDEN 292013Z 2920/3024 03007KT 3/4SM -SN BR SCT002 OVC007
      TEMPO 2920/2922 1/4SM SN FG OVC002
     FM292200 05007KT 1SM -SN BR BKN005 OVC009
     FM292300 02011KT 2SM -SN BR BKN009 OVC015
     FM300200 01009KT 4SM -SN BR BKN012 OVC020
     FM300500 35008KT 6SM BR SCT012 OVC025
      TEMPO 3005/3009 2SM -SN BR BKN006=



000
FTUS45 KBOU 291741
TAFAPA
TAF
KAPA 291741Z 2918/3018 VRB04KT 1SM -SN BR BKN004 OVC010
      TEMPO 2918/2922 1/2SM -SN FG OVC004
     FM292200 07007KT 3/4SM -SN BR OVC006
     FM300200 04010KT 1 1/2SM -SN BR BKN007 OVC012
     FM300400 36008KT 2SM -SN BR BKN008 OVC016
     FM300500 34010KT 4SM -SN BR BKN007 OVC020
      TEMPO 3006/3010 1SM -SN BR OVC004=



000
FTUS45 KBOU 291741
TAFBJC
TAF
KBJC 291741Z 2918/3018 03005KT 1SM -SN BR BKN003 OVC009
      TEMPO 2918/2922 1/4SM -SN FG VV003
     FM292200 02006KT 1SM -SN BR BKN004 OVC010
     FM300200 01007KT 3SM -SN BR BKN012 OVC020
     FM300500 35008KT 6SM BR SCT014 OVC025
      TEMPO 3005/3009 3SM -SN BR BKN006=



000
FTUS45 KBOU 291741
TAFDEN
TAF
KDEN 291741Z 2918/3024 07006KT 1/2SM -SN FG SCT002 OVC007
      TEMPO 2918/2920 1/4SM -SN FG OVC002
     FM292000 05007KT 1SM -SN BR BKN005 OVC009
     FM292300 02011KT 2SM -SN BR BKN009 OVC015
     FM300200 01009KT 4SM -SN BR BKN012 OVC020
     FM300500 35008KT 6SM BR SCT012 OVC025
      TEMPO 3005/3009 2SM -SN BR BKN006=



000
FTUS45 KBOU 291500 AAD
TAFDEN
TAF AMD
KDEN 291500Z 2915/3018 10006KT 3/4SM -SN BR BKN002 OVC007
      TEMPO 2915/2918 1/4SM -SN FG OVC002
     FM291800 07008KT 1SM -SN BR BKN005 OVC009
     FM292200 03011KT 2SM -SN BR BKN009 OVC015
     FM300100 36008KT 4SM -SN BR BKN010 OVC020
     FM300500 34011KT 5SM BR BKN008 OVC022
      TEMPO 3005/3009 2SM -SN BR OVC006=



000
FTUS45 KBOU 291500 AAD
TAFDEN
TAF AMD
KDEN 291500Z 2915/3018 10006KT 3/4SM -SN BR BKN002 OVC007
      TEMPO 2915/2918 1/4SM -SN FG OVC002
     FM291800 07008KT 1SM -SN BR BKN005 OVC009
     FM292200 03011KT 2SM -SN BR BKN009 OVC015
     FM300100 36008KT 4SM -SN BR BKN010 OVC020
     FM300500 34011KT 5SM BR BKN008 OVC022
      TEMPO 3005/3009 2SM -SN BR OVC006=



000
FTUS45 KBOU 291446 AAC
TAFDEN
TAF AMD
KDEN 291446Z 2915/3018 09006KT 1SM -SN BR SCT002 OVC007
      TEMPO 2915/2918 1/2SM -SN FG OVC002
     FM291800 07008KT 1SM -SN BR SCT003 OVC006
     FM292200 02011KT 2SM -SN BR BKN008 OVC015
     FM300100 36008KT 4SM -SN BR BKN012 OVC020
     FM300500 34011KT 5SM BR BKN008 OVC022
      TEMPO 3005/3009 2SM -SN BR OVC006=



000
FTUS45 KBOU 291413 AAB
TAFAPA
TAF AMD
KAPA 291413Z 2914/3012 VRB04KT 1SM -SN BR BKN004 OVC010
      TEMPO 2914/2917 1/2SM -SN FG OVC004
     FM291700 07007KT 3/4SM -SN BR OVC006
     FM292200 04010KT 1 1/2SM -SN BR BKN007 OVC012
     FM300100 36008KT 2SM -SN BR BKN008 OVC016
     FM300500 34010KT 4SM -SN BR BKN007 OVC020
      TEMPO 3006/3010 1SM -SN BR OVC004=



000
FTUS45 KBOU 291413 AAB
TAFAPA
TAF AMD
KAPA 291413Z 2914/3012 VRB04KT 1SM -SN BR BKN004 OVC010
      TEMPO 2914/2917 1/2SM -SN FG OVC004
     FM291700 07007KT 3/4SM -SN BR OVC006
     FM292200 04010KT 1 1/2SM -SN BR BKN007 OVC012
     FM300100 36008KT 2SM -SN BR BKN008 OVC016
     FM300500 34010KT 4SM -SN BR BKN007 OVC020
      TEMPO 3006/3010 1SM -SN BR OVC004=



000
FTUS45 KBOU 291410 AAB
TAFDEN
TAF AMD
KDEN 291410Z 2914/3018 08006KT 2SM -SN SCT002 OVC006
      TEMPO 2914/2915 1 1/2SM -SN BR VV002
     FM291500 07008KT 3/4SM -SN BR VV004
     FM292200 02011KT 2SM -SN BR BKN008 OVC015
     FM300100 36008KT 4SM -SN BR BKN012 OVC020
     FM300500 34011KT 5SM BR BKN008 OVC022
      TEMPO 3005/3009 2SM -SN BR OVC006=



000
FTUS45 KBOU 291227 AAA
TAFDEN
TAF AMD
KDEN 291227Z 2912/3018 10005KT P6SM -SN BKN002 OVC009
      TEMPO 2914/2915 1 1/2SM -SN BR VV001
     FM291500 07008KT 3/4SM -SN BR OVC006
     FM292200 02011KT 2SM -SN BR BKN008 OVC012
     FM300100 35008KT 3SM -SN BR BKN008 OVC014
     FM300500 34012KT 5SM -SN BR BKN007 OVC011=



000
FTUS45 KBOU 291218 AAA
TAFAPA
TAF AMD
KAPA 291218Z 2912/3012 VRB04KT 2SM -SN BR BKN012 OVC035
      TEMPO 2913/2915 1SM -SN BR BKN006 OVC010
     FM291500 07008KT 3/4SM -SN BR OVC006
     FM292200 04010KT 1 1/2SM -SN BR BKN007 OVC012
     FM300100 34008KT 2SM -SN BR BKN007 OVC012
     FM300500 34010KT 4SM -SN BR BKN009 OVC015=



000
FTUS45 KBOU 291213 AAA
TAFBJC
TAF AMD
KBJC 291213Z 2912/3012 04005KT 1 1/2SM -SN BR BKN006 OVC010
      TEMPO 2912/2915 3/4SM -SN BR VV002
     FM291500 04007KT 3/4SM -SN BR OVC004
     FM292200 02011KT 1 1/2SM -SN BR OVC009
     FM300100 34010KT 2SM -SN BR BKN005 OVC010
     FM300500 34010KT 4SM -SN BR BKN007 OVC011=



000
FTUS45 KBOU 291139
TAFDEN
TAF
KDEN 291139Z 2912/3018 07005KT 5SM -SN BR BKN007 OVC015
      TEMPO 2912/2914 2SM -SN BR VV003
     FM291500 07010KT 1SM -SN BR OVC005
     FM291800 04010KT 2SM -SNRA BR OVC007
     FM292200 02011KT 2SM -SNRA BR OVC011
     FM300100 35008KT 2SM -SN BR BKN008 OVC014
     FM300500 34012KT 1SM -SN BR BKN007 OVC011=



000
FTUS45 KBOU 291139
TAFBJC
TAF
KBJC 291139Z 2912/3012 VRB04KT 6SM -SN BR BKN009 OVC017
     FM291600 04010KT 3/4SM -SNRA BR OVC005
     FM292200 02011KT 1 1/2SM -SN BR OVC009
     FM300100 34010KT 1SM -SN BR BKN005 OVC010
     FM300500 34010KT 3/4SM -SN BR BKN004 OVC008=



000
FTUS45 KBOU 291139
TAFAPA
TAF
KAPA 291139Z 2912/3012 11005KT 6SM -SN BR SCT014 OVC035
     FM291500 07010KT 1SM -SN BR OVC006
     FM291800 04010KT 2SM -SNRA BR OVC007
     FM292200 02011KT 2SM -SNRA BR OVC011
     FM300100 34008KT 2SM -SN BR BKN007 OVC012
     FM300500 34010KT 1SM -SN BR BKN006 OVC011=



000
FTUS45 KBOU 291046 AAB
TAFBJC
TAF AMD
KBJC 291046Z 2911/3006 03005KT 2SM -SN BR BKN007 OVC012
     FM291200 VRB04KT 6SM -SN BR BKN009 OVC017
     FM291600 04010KT 3/4SM -SNRA BR OVC005
     FM292200 02011KT 1 1/2SM -SN BR OVC009
     FM300100 34010KT 1SM -SN BR BKN005 OVC010
     FM300500 34010KT 3/4SM -SN BR BKN004 OVC008=



000
FTUS45 KBOU 291046 AAC
TAFDEN
TAF AMD
KDEN 291046Z 2911/3012 07008KT 2SM -SN SCT005 OVC011
      TEMPO 2911/2912 3/4SM -SN BR BKN004 OVC010
     FM291200 07005KT 5SM -SN BR BKN007 OVC015
     FM291500 07010KT 1SM -SN BR OVC005
     FM291800 04010KT 2SM -SNRA BR OVC007
     FM292200 02011KT 2SM -SNRA BR OVC011
     FM300100 35008KT 2SM -SN BR BKN008 OVC014
     FM300500 34012KT 1SM -SN BR BKN007 OVC011=



000
FTUS45 KBOU 291046 AAC
TAFAPA
TAF AMD
KAPA 291046Z 2911/3006 11005KT 6SM -SN BR SCT014 OVC025
     FM291500 07010KT 1SM -SN BR OVC006
     FM291800 04010KT 2SM -SNRA BR OVC007
     FM292200 02011KT 2SM -SNRA BR OVC011
     FM300100 34008KT 2SM -SN BR BKN007 OVC012
     FM300500 34010KT 1SM -SN BR BKN006 OVC011=



000
FTUS45 KBOU 290847 AAA
TAFBJC
TAF AMD
KBJC 290847Z 2909/3006 14006KT 4SM -RA BKN004 OVC009
      TEMPO 2909/2911 2SM -SN BR OVC004
     FM291100 07010KT 1 1/2SM -SN BR OVC003
     FM291800 04010KT 3/4SM -SNRA BR OVC005
     FM292200 02011KT 1 1/2SM -SN BR OVC009
     FM300100 34010KT 1SM -SN BR BKN005 OVC010
     FM300500 34010KT 3/4SM -SN BR BKN004 OVC008=



000
FTUS45 KBOU 290847 AAB
TAFDEN
TAF AMD
KDEN 290847Z 2909/3012 13009KT 3SM -SN SCT007 OVC015
      TEMPO 2909/2912 1 1/2SM -SN BR BKN006 OVC010
     FM291200 07010KT 1SM -SN BR OVC005
     FM291800 04010KT 2SM -SNRA BR OVC007
     FM292200 02011KT 2SM -SNRA BR OVC011
     FM300100 35008KT 2SM -SN BR BKN008 OVC014
     FM300500 34012KT 1SM -SN BR BKN007 OVC011=



000
FTUS45 KBOU 290847 AAB
TAFAPA
TAF AMD
KAPA 290847Z 2909/3006 15007KT 2SM -SN BR SCT008 OVC011
      TEMPO 2909/2912 1 1/2SM -SN BR OVC007
     FM291200 07010KT 1SM -SN BR OVC006
     FM291800 04010KT 2SM -SNRA BR OVC007
     FM292200 02011KT 2SM -SNRA BR OVC011
     FM300100 34008KT 2SM -SN BR BKN007 OVC012
     FM300500 34010KT 1SM -SN BR BKN006 OVC011=



000
FTUS45 KBOU 290700 AAA
TAFAPA
TAF AMD
KAPA 290700Z 2907/3006 12008KT 3SM -SN BR SCT008 OVC011
      TEMPO 2907/2909 2SM -SN BR OVC007
     FM290900 09009KT 1 1/2SM -SN BR BKN006 OVC010
     FM291200 07010KT 1SM -SN BR OVC006
     FM291800 04010KT 2SM -SNRA BR OVC007
     FM292200 02011KT 2SM -SNRA BR OVC011
     FM300100 34008KT 2SM -SN BR BKN007 OVC012
     FM300500 34010KT 1SM -SN BR BKN006 OVC011=



000
FTUS45 KBOU 290700 AAA
TAFAPA
TAF AMD
KAPA 290700Z 2907/3006 12008KT 3SM -SN BR SCT008 OVC011
      TEMPO 2907/2909 2SM -SN BR OVC007
     FM290900 09009KT 1 1/2SM -SN BR BKN006 OVC010
     FM291200 07010KT 1SM -SN BR OVC006
     FM291800 04010KT 2SM -SNRA BR OVC007
     FM292200 02011KT 2SM -SNRA BR OVC011
     FM300100 34008KT 2SM -SN BR BKN007 OVC012
     FM300500 34010KT 1SM -SN BR BKN006 OVC011=



000
FTUS45 KBOU 290658 AAA
TAFDEN
TAF AMD
KDEN 290658Z 2907/3012 11010KT P6SM -SN BKN007 OVC012
      TEMPO 2907/2909 2SM -SN BR BKN005 OVC010
     FM290900 09009KT 1 1/2SM -SN BR BKN006 OVC010
     FM291200 07010KT 1SM -SN BR OVC005
     FM291800 04010KT 2SM -SNRA BR OVC007
     FM292200 02011KT 2SM -SNRA BR OVC011
     FM300100 35008KT 2SM -SN BR BKN008 OVC014
     FM300500 34012KT 1SM -SN BR BKN007 OVC011=



000
FTUS45 KBOU 290520
TAFBJC
TAF
KBJC 290520Z 2906/3006 02006KT 4SM -DZ BKN006 OVC011
      TEMPO 2907/2908 2SM -SN BR OVC004
     FM290800 09009KT 1SM -SN BR OVC004
     FM291200 07010KT 3/4SM -SN BR OVC003
     FM291800 04010KT 3/4SM -SNRA BR OVC005
     FM292200 02011KT 1 1/2SM -SN BR OVC009
     FM300100 34010KT 1SM -SN BR BKN005 OVC010
     FM300500 34010KT 3/4SM -SN BR BKN004 OVC008=



000
FTUS45 KBOU 290520
TAFAPA
TAF
KAPA 290520Z 2906/3006 12008KT 6SM -DZ SCT009 OVC012
      TEMPO 2906/2908 2SM -SN BR OVC007
     FM290800 09009KT 1 1/2SM -SN BR BKN006 OVC010
     FM291200 07010KT 1SM -SN BR OVC006
     FM291800 04010KT 2SM -SNRA BR OVC007
     FM292200 02011KT 2SM -SNRA BR OVC011
     FM300100 34008KT 2SM -SN BR BKN007 OVC012
     FM300500 34010KT 1SM -SN BR BKN006 OVC011=



000
FTUS45 KBOU 290520
TAFDEN
TAF
KDEN 290520Z 2906/3012 08010KT P6SM -SN BKN009 OVC015
      TEMPO 2906/2908 2SM -SN BR BKN007 OVC014
     FM290800 09009KT 1 1/2SM -SN BR BKN006 OVC010
     FM291200 07010KT 1SM -SN BR OVC005
     FM291800 04010KT 2SM -SNRA BR OVC007
     FM292200 02011KT 2SM -SNRA BR OVC011
     FM300100 35008KT 2SM -SN BR BKN008 OVC014
     FM300500 34012KT 1SM -SN BR BKN007 OVC011=



000
FTUS45 KBOU 290520
TAFBJC
TAF
KBJC 290520Z 2906/3006 02006KT 4SM -DZ BKN006 OVC011
      TEMPO 2907/2908 2SM -SN BR OVC004
     FM290800 09009KT 1SM -SN BR OVC004
     FM291200 07010KT 3/4SM -SN BR OVC003
     FM291800 04010KT 3/4SM -SNRA BR OVC005
     FM292200 02011KT 1 1/2SM -SN BR OVC009
     FM300100 34010KT 1SM -SN BR BKN005 OVC010
     FM300500 34010KT 3/4SM -SN BR BKN004 OVC008=



000
FTUS45 KBOU 290343 AAB
TAFDEN
TAF AMD
KDEN 290343Z 2904/3006 05010KT P6SM BKN008 OVC030
     FM290430 03010KT P6SM VCSH BKN007 OVC018
      TEMPO 2905/2907 2SM -SN BR OVC006
     FM290700 09009KT 1 1/2SM -SN BR BKN006 OVC010
     FM291200 07010KT 1SM -SN BR OVC006
     FM291800 04010KT 1SM -SNRA BR OVC007
     FM292300 02011KT 2SM -SN BR OVC011
     FM300300 35008KT 4SM -SN BR OVC014=



000
FTUS45 KBOU 290256 AAA
TAFDEN
TAF AMD
KDEN 290256Z 2903/3006 08010KT P6SM BKN012 OVC030
     FM290400 06009KT P6SM VCSH BKN009 OVC018
      TEMPO 2905/2907 2SM -SN BR OVC007
     FM290700 09009KT 1 1/2SM -SN BR BKN006 OVC010
     FM291200 07010KT 1SM -SN BR OVC006
     FM291800 04010KT 1SM -SNRA BR OVC007
     FM292300 02011KT 2SM -SN BR OVC011
     FM300300 35008KT 4SM -SN BR OVC014=



000
FTUS45 KBOU 290256 AAA
TAFAPA
TAF AMD
KAPA 290256Z 2903/2924 VRB05KT P6SM BKN015 OVC024
     FM290400 06009KT P6SM VCSH BKN009 OVC018
      TEMPO 2904/2907 2SM -SN BR OVC007
     FM290700 09009KT 1 1/2SM -SN BR BKN006 OVC010
     FM291200 07010KT 1SM -SN BR OVC006
     FM291800 04010KT 1SM -SNRA BR OVC007
     FM292300 02011KT 2SM -SN BR OVC011=



000
FTUS45 KBOU 290256 AAB
TAFBJC
TAF AMD
KBJC 290256Z 2903/2924 VRB05KT P6SM SCT003 BKN008 OVC015
      TEMPO 2903/2904 2SM -DZ BKN004
     FM290400 03006KT P6SM VCSH BKN005 OVC015
      TEMPO 2904/2907 2SM -SN BR OVC003
     FM290700 09009KT 1SM -SN BR OVC004
     FM291200 07010KT 3/4SM -SN BR OVC003
     FM291800 04010KT 3/4SM -SNRA BR OVC005
     FM292300 02011KT 1 1/2SM -SN BR OVC010=



000
FTUS45 KBOU 290021 AAA
TAFBJC
TAF AMD
KBJC 290021Z 2900/2924 07005KT P6SM BKN008 OVC020
      TEMPO 2900/2902 2SM -DZ BKN005
     FM290200 10009KT P6SM VCSH BKN007 OVC015
      TEMPO 2903/2905 2SM -SN BR OVC006
     FM290600 09009KT 1SM -SN BR BKN004 OVC009
     FM291200 07010KT 3/4SM -SN BR OVC004
     FM291800 04010KT 3/4SM -SNRA BR OVC005
     FM292300 02011KT 1 1/2SM -SN BR OVC010=



000
FTUS45 KBOU 282334
TAFAPA
TAF
KAPA 282334Z 2900/2924 VRB05KT P6SM BKN015 OVC022
      TEMPO 2900/2902 4SM -DZ BKN012
     FM290200 10009KT P6SM VCSH BKN010 OVC020
      TEMPO 2903/2905 2SM -SN BR OVC007
     FM290600 09009KT 1 1/2SM -SN BR BKN006 OVC010
     FM291200 07010KT 1SM -SN BR OVC006
     FM291800 04010KT 1SM -SNRA BR OVC007
     FM292300 02011KT 2SM -SN BR OVC011=



000
FTUS45 KBOU 282334
TAFBJC
TAF
KBJC 282334Z 2900/2924 08006KT P6SM BKN009 OVC018
     FM290200 10009KT P6SM VCSH BKN007 OVC015
      TEMPO 2903/2905 2SM -SN BR OVC006
     FM290600 09009KT 1SM -SN BR BKN004 OVC009
     FM291200 07010KT 3/4SM -SN BR OVC004
     FM291800 04010KT 3/4SM -SNRA BR OVC005
     FM292300 02011KT 1 1/2SM -SN BR OVC010=



000
FTUS45 KBOU 282334
TAFDEN
TAF
KDEN 282334Z 2900/3006 10012KT P6SM BKN012 OVC022
     FM290200 10009KT P6SM VCSH BKN010 OVC020
      TEMPO 2903/2905 2SM -SN BR OVC007
     FM290600 09009KT 1 1/2SM -SN BR BKN006 OVC010
     FM291200 07010KT 1SM -SN BR OVC006
     FM291800 04010KT 1SM -SNRA BR OVC007
     FM292300 02011KT 2SM -SN BR OVC011
     FM300300 35008KT 4SM -SN BR OVC014=



000
FTUS45 KBOU 282238 AAC
TAFAPA
TAF AMD
KAPA 282238Z 2823/2918 VRB06KT P6SM SCT014 OVC022
     FM290200 10008KT 3SM -SN BR OVC010
      TEMPO 2904/2907 1SM -SN BR OVC008
     FM290700 06011KT 3/4SM -SN BR OVC007
     FM291100 03010KT 1/4SM SN FZFG OVC004
     FM291700 07012KT 3/4SM -SN BR OVC007=



000
FTUS45 KBOU 282238 AAC
TAFBJC
TAF AMD
KBJC 282238Z 2823/2918 07005KT P6SM BKN008 OVC018
     FM290200 05007KT 4SM -SN BR BKN006 OVC010
      TEMPO 2904/2907 2SM -SN BR OVC005
     FM290700 07008KT 3/4SM -SN BR OVC005
      TEMPO 2908/2912 1/4SM SN FZFG VV003=



000
FTUS45 KBOU 282059 AAE
TAFDEN
TAF AMD
KDEN 282059Z 2821/2924 11011KT P6SM VCSH OVC016
     FM290100 11011KT 6SM -SHSN BR BKN012 OVC025
     FM290300 08008KT 3SM -SN BR BKN010 OVC015
      TEMPO 2905/2908 1 1/2SM -SN BR OVC009
     FM290800 05011KT 1SM -SN BR BKN005 OVC009
     FM291400 02010KT 1/2SM SN FG OVC004
     FM291800 01012KT 1 1/2SM -SNRA BR OVC010
     FM292300 03013G18KT 2SM -SN BR OVC014=



000
FTUS45 KBOU 282059 AAB
TAFAPA
TAF AMD
KAPA 282059Z 2821/2918 09010KT P6SM BKN015 OVC025
     FM290000 12009KT 4SM -SN BR BKN008 OVC015
     FM290200 10008KT 2SM -SN BR OVC010
      TEMPO 2904/2907 1SM -SN BR OVC008
     FM290700 06011KT 3/4SM -SN BR OVC007
     FM291100 03010KT 1/4SM SN FZFG OVC004
     FM291700 07012KT 3/4SM -SN BR OVC007=



000
FTUS45 KBOU 282042 AAB
TAFBJC
TAF AMD
KBJC 282042Z 2821/2918 09006KT 4SM -SHSN BKN007 OVC014
      TEMPO 2821/2824 1SM -SN BR OVC005
     FM290000 08006KT 5SM -SHSN BR BKN008 OVC014
     FM290200 05007KT 3SM -SN BR BKN006 OVC010
      TEMPO 2904/2907 2SM -SN BR OVC005
     FM290700 07008KT 3/4SM -SN BR OVC005
      TEMPO 2908/2912 1/4SM SN FZFG VV003=



000
FTUS45 KBOU 281958 AAD
TAFDEN
TAF AMD
KDEN 281958Z 2820/2924 10012KT P6SM VCSH BKN016 OVC025
     FM290100 11011KT 6SM -SHSN BR BKN012 OVC025
     FM290300 08008KT 3SM -SN BR BKN010 OVC015
      TEMPO 2905/2908 1 1/2SM -SN BR OVC009
     FM290800 05011KT 1SM -SN BR BKN005 OVC009
     FM291400 02010KT 1/2SM SN FG OVC004
     FM291800 01012KT 1 1/2SM -SNRA BR OVC010
     FM292300 03013G18KT 2SM -SN BR OVC014=



000
FTUS45 KBOU 281955 AAC
TAFDEN
TAF AMD
KDEN 281955Z 2820/2924 10012KT P6SM VCSH BKN016 OVC025
     FM290100 11011KT 6SM -SHRA BR BKN012 OVC025
     FM290300 08008KT 3SM -RASN BR BKN010 OVC015
      TEMPO 2905/2908 1 1/2SM -SN BR OVC009
     FM290800 05011KT 1SM -SN BR BKN005 OVC009
     FM291400 02010KT 1/2SM SN FG OVC004
     FM291800 01012KT 1 1/2SM -SNRA BR OVC010
     FM292300 03013G18KT 2SM -SN BR OVC014=



000
FTUS45 KBOU 281918 AAB
TAFDEN
TAF AMD
KDEN 281918Z 2819/2924 10011KT P6SM BKN015 OVC025
      TEMPO 2819/2823 4SM -SHSN OVC015
     FM282300 14012KT 6SM -SHSN BKN014 OVC022
     FM290300 08008KT 3SM -SN BR BKN010 OVC014
      TEMPO 2905/2908 1 1/2SM -SN BR OVC009
     FM290800 06011KT 1SM -SN BR OVC008
     FM291300 03010KT 3/4SM -SN BR OVC005
     FM291800 02012KT 1 1/2SM -SNRA BR OVC010
     FM292300 02013G18KT 3SM -SNRA BR OVC015=



000
FTUS45 KBOU 281918 AAB
TAFDEN
TAF AMD
KDEN 281918Z 2819/2924 10011KT P6SM BKN015 OVC025
      TEMPO 2819/2823 4SM -SHSN OVC015
     FM282300 14012KT 6SM -SHSN BKN014 OVC022
     FM290300 08008KT 3SM -SN BR BKN010 OVC014
      TEMPO 2905/2908 1 1/2SM -SN BR OVC009
     FM290800 06011KT 1SM -SN BR OVC008
     FM291300 03010KT 3/4SM -SN BR OVC005
     FM291800 02012KT 1 1/2SM -SNRA BR OVC010
     FM292300 02013G18KT 3SM -SNRA BR OVC015=



000
FTUS45 KBOU 281913 AAA
TAFAPA
TAF AMD
KAPA 281913Z 2819/2918 10012KT P6SM -SHSN BKN013 OVC020
      TEMPO 2819/2823 3SM -SN BR OVC012
     FM282300 14009KT 3SM -SN BR BKN008 OVC015
     FM290200 10008KT 2SM -SN BR OVC010
      TEMPO 2904/2907 1SM -SN BR OVC008
     FM290700 06011KT 3/4SM -SN BR OVC007
     FM291100 03010KT 1/4SM SN FZFG OVC004
     FM291700 07012KT 3/4SM -SN BR OVC007=



000
FTUS45 KBOU 281908 AAA
TAFBJC
TAF AMD
KBJC 281908Z 2819/2918 VRB04KT 5SM -SN BKN008 OVC015
      TEMPO 2819/2822 3SM -SHSN BR OVC008
     FM282200 08006KT 5SM -SHSN BR BKN008 OVC014
     FM290200 05007KT 3SM -SN BR BKN006 OVC010
      TEMPO 2904/2907 2SM -SN BR OVC005
     FM290700 07008KT 3/4SM -SN BR OVC005
      TEMPO 2908/2912 1/4SM SN FZFG VV003=



000
FTUS45 KBOU 281856 AAA
TAFDEN
TAF AMD
KDEN 281856Z 2819/2924 10012KT P6SM -SN BKN016 OVC030
     FM282100 14012KT P6SM VCSH BKN015 OVC030
     FM282300 11011KT 6SM -SHRA BR BKN012 OVC025
     FM290300 08008KT 3SM -RASN BR BKN010 OVC015
      TEMPO 2905/2908 1 1/2SM -SN BR OVC009
     FM290800 05011KT 1SM -SN BR BKN005 OVC009
     FM291400 02010KT 1/2SM SN FG OVC004
     FM291800 01012KT 1 1/2SM -SNRA BR OVC010
     FM292300 03013G18KT 2SM -SN BR OVC014=



000
FTUS45 KBOU 281856 AAA
TAFDEN
TAF AMD
KDEN 281856Z 2819/2924 10012KT P6SM -SN BKN016 OVC030
     FM282100 14012KT P6SM VCSH BKN015 OVC030
     FM282300 11011KT 6SM -SHRA BR BKN012 OVC025
     FM290300 08008KT 3SM -RASN BR BKN010 OVC015
      TEMPO 2905/2908 1 1/2SM -SN BR OVC009
     FM290800 05011KT 1SM -SN BR BKN005 OVC009
     FM291400 02010KT 1/2SM SN FG OVC004
     FM291800 01012KT 1 1/2SM -SNRA BR OVC010
     FM292300 03013G18KT 2SM -SN BR OVC014=



000
FTUS45 KBOU 281740
TAFBJC
TAF
KBJC 281740Z 2818/2918 VRB04KT 3SM -SN BR OVC008
      TEMPO 2818/2819 5SM -RASN BR BKN013 OVC022
     FM281900 06008KT P6SM VCSH BKN018 OVC030
     FM282300 03007KT 5SM -SHRA BR OVC015
     FM290300 05008KT 3SM -SNRA BR BKN008 OVC015
      TEMPO 2905/2907 2SM -SN BR OVC006
     FM290800 08010KT 3/4SM -SN BR OVC004
      TEMPO 2909/2912 1/4SM SN FZFG VV003=



000
FTUS45 KBOU 281740
TAFAPA
TAF
KAPA 281740Z 2818/2918 VRB04KT 4SM -SHSN BKN007 OVC016
     FM281900 12012KT P6SM VCSH BKN018 OVC030
     FM282300 15009KT 5SM -SHRA BR BKN018 OVC028
     FM290200 10008KT 3SM -RASN BR OVC016
      TEMPO 2905/2907 1 1/2SM -SN BR OVC012
     FM290800 06011KT 3/4SM -SN BR BKN005 OVC010
     FM291200 03010KT 1/2SM SN FG OVC005
     FM291700 02012KT 3/4SM -SN BR OVC007=



000
FTUS45 KBOU 281740
TAFDEN
TAF
KDEN 281740Z 2818/2924 12012KT 5SM -SN BR SCT010 BKN018 OVC025
     FM281900 15013KT P6SM VCSH BKN020 OVC035
     FM282300 11011KT 6SM -SHRA BR BKN020 OVC030
     FM290300 08008KT 3SM -RASN BR OVC018
      TEMPO 2906/2908 1 1/2SM -SN BR OVC012
     FM290800 05011KT 1SM -SN BR BKN005 OVC010
     FM291400 02010KT 1/2SM SN FG OVC005
     FM291800 01012KT 1 1/2SM -SNRA BR OVC008
     FM292300 03013G18KT 2SM -SN BR OVC014=



000
FTUS45 KBOU 281652 AAB
TAFBJC
TAF AMD
KBJC 281652Z 2817/2912 VRB04KT 3SM -SN BR OVC008
      TEMPO 2817/2818 5SM -RASN BR BKN013 OVC022
     FM281800 06008KT P6SM VCSH BKN018 OVC030
     FM282300 03007KT 5SM -SHRA BR OVC015
     FM290300 05008KT 3SM -SNRA BR BKN008 OVC015
      TEMPO 2905/2907 2SM -SN BR OVC006
     FM290800 08010KT 3/4SM -SN BR OVC004
      TEMPO 2909/2912 1/4SM SN FZFG VV003=



000
FTUS45 KBOU 281641 AAC
TAFAPA
TAF AMD
KAPA 281641Z 2817/2912 09008KT 2SM -SN BR OVC008
      TEMPO 2817/2818 5SM -RASN BR BKN016 OVC022
     FM281900 11008KT P6SM VCSH BKN020 OVC035
     FM282300 15009KT 4SM -SHRASN BR BKN014 OVC022
     FM290300 09008KT 3SM -SN BR BKN007 OVC012
      TEMPO 2904/2907 1SM -SN BR OVC005
     FM290700 05010KT 3/4SM -SN BR OVC004
      TEMPO 2908/2912 1/4SM SN FZFG VV003=



000
FTUS45 KBOU 281641 AAC
TAFAPA
TAF AMD
KAPA 281641Z 2817/2912 09008KT 2SM -SN BR OVC008
      TEMPO 2817/2818 5SM -RASN BR BKN016 OVC022
     FM281900 11008KT P6SM VCSH BKN020 OVC035
     FM282300 15009KT 4SM -SHRASN BR BKN014 OVC022
     FM290300 09008KT 3SM -SN BR BKN007 OVC012
      TEMPO 2904/2907 1SM -SN BR OVC005
     FM290700 05010KT 3/4SM -SN BR OVC004
      TEMPO 2908/2912 1/4SM SN FZFG VV003=



000
FTUS45 KBOU 281600 AAA
TAFBJC
TAF AMD
KBJC 281600Z 2816/2912 08010KT 2SM -SN BR BKN010 OVC025
      TEMPO 2817/2819 3/4SM -SN BR BKN008 OVC015
     FM282000 03008KT P6SM VCSH BKN025 OVC040
     FM290200 01010KT 6SM -RA BR OVC015
     FM290500 02010KT 4SM -RA BR OVC012
      TEMPO 2905/2907 2SM -RASN BR OVC007
     FM290800 05012KT 1SM -SN BR BKN006 OVC010=



000
FTUS45 KBOU 281600 AAC
TAFDEN
TAF AMD
KDEN 281600Z 2816/2918 11010KT 2SM -SN BR BKN020 OVC035
      TEMPO 2817/2819 3/4SM -SN BR BKN015 OVC024
     FM282000 15008KT P6SM VCSH BKN028 OVC040
     FM290000 11011KT 6SM -SHRA BR BKN018 OVC025
     FM290500 08008KT 3SM -RASN BR OVC015
      TEMPO 2906/2909 2SM -SN BR OVC008
     FM290900 05011KT 1SM -SN BR BKN006 OVC012=



000
FTUS45 KBOU 281521 AAB
TAFAPA
TAF AMD
KAPA 281521Z 2815/2912 09008KT 3SM -SN BR BKN009 OVC020
      TEMPO 2815/2818 1SM -SN BR BKN005 OVC010
     FM281900 11008KT 5SM -SHRASN BKN020 OVC035
     FM290000 14010KT 4SM -SHSNRA BR BKN015 OVC022
     FM290300 08008KT 3SM -SN BR BKN006 OVC014
      TEMPO 2904/2908 1SM -SN BR OVC004
     FM290800 05010KT 1SM -SN BR OVC004
      TEMPO 2908/2912 1/4SM SN FZFG VV003=



000
FTUS45 KBOU 281503 AAB
TAFDEN
TAF AMD
KDEN 281503Z 2815/2918 09008KT P6SM SCT020 OVC035
     FM281600 11010KT P6SM VCSH BKN020 OVC035
      TEMPO 2816/2819 5SM -SHRASN BKN015 OVC024
     FM282000 15008KT P6SM VCSH BKN028 OVC040
     FM290000 11011KT 6SM -SHRA BR BKN018 OVC025
     FM290500 08008KT 3SM -RASN BR OVC015
      TEMPO 2906/2909 2SM -SN BR OVC008
     FM290900 05011KT 1SM -SN BR BKN006 OVC012=



000
FTUS45 KBOU 281419 AAA
TAFDEN
TAF AMD
KDEN 281419Z 2814/2918 08008KT P6SM SCT022 OVC040
     FM281600 11010KT P6SM VCSH BKN020 OVC035
      TEMPO 2816/2819 5SM -SHRA BKN018 OVC030
     FM282100 14009KT P6SM VCSH BKN035 OVC050
     FM290100 11011KT 6SM -SHRA BR OVC020
     FM290500 08008KT 3SM -RA BR OVC013
      TEMPO 2906/2910 2SM -RASN BR OVC008
     FM291000 05011KT 1SM -SN BR BKN006 OVC012=



000
FTUS45 KBOU 281413 AAA
TAFAPA
TAF AMD
KAPA 281413Z 2814/2912 09006KT P6SM BKN027 OVC035
      TEMPO 2814/2818 5SM -SHRA SCT018 OVC025
     FM281800 11008KT P6SM SCT018 BKN030 OVC050
     FM282100 16010KT P6SM VCSH BKN024 OVC040
     FM290200 12008KT 6SM -SHRA BR BKN015 OVC022
     FM290500 09007KT 3SM -RA BR OVC012
      TEMPO 2905/2907 2SM -RASN BR OVC008
     FM290800 05012KT 1SM -SN BR BKN007 OVC012=



000
FTUS45 KBOU 281138
TAFDEN
TAF
KDEN 281138Z 2812/2918 10007KT P6SM BKN045 OVC060
     FM281700 09012KT P6SM -SHRA BKN025 OVC050
      TEMPO 2817/2821 5SM -SHRA BKN018 OVC030
     FM282100 12010KT P6SM VCSH BKN035 OVC050
     FM290200 08012KT 6SM -RA BR OVC015
     FM290700 07010KT 4SM -RA BR OVC012
      TEMPO 2907/2910 2SM -RASN BR OVC008
     FM291000 05012KT 1SM -SN BR BKN007 OVC012=



000
FTUS45 KBOU 281138
TAFAPA
TAF
KAPA 281138Z 2812/2912 10005KT P6SM VCSH SCT025 OVC035
      TEMPO 2812/2814 6SM -SN BKN025
     FM281400 09007KT P6SM SCT020 BKN035 OVC050
     FM281600 09012KT P6SM -SHRA BKN025 OVC050
      TEMPO 2816/2820 5SM -SHRA BKN018 OVC030
     FM282100 12010KT P6SM VCSH BKN035 OVC050
     FM290200 08012KT 6SM -RA BR OVC015
     FM290500 07010KT 4SM -RA BR OVC012
      TEMPO 2905/2907 2SM -RASN BR OVC008
     FM290800 05012KT 1SM -SN BR BKN007 OVC012=



000
FTUS45 KBOU 281138
TAFDEN
TAF
KDEN 281138Z 2812/2918 10007KT P6SM BKN045 OVC060
     FM281700 09012KT P6SM -SHRA BKN025 OVC050
      TEMPO 2817/2821 5SM -SHRA BKN018 OVC030
     FM282100 12010KT P6SM VCSH BKN035 OVC050
     FM290200 08012KT 6SM -RA BR OVC015
     FM290700 07010KT 4SM -RA BR OVC012
      TEMPO 2907/2910 2SM -RASN BR OVC008
     FM291000 05012KT 1SM -SN BR BKN007 OVC012=



000
FTUS45 KBOU 281138
TAFBJC
TAF
KBJC 281138Z 2812/2912 08006KT P6SM BKN025 OVC035
     FM281600 06012KT P6SM -SHRA BKN020 OVC030
      TEMPO 2816/2820 5SM -SHRA BKN015 OVC025
     FM282100 03008KT P6SM VCSH BKN035 OVC050
     FM290200 01010KT 6SM -RA BR OVC015
     FM290500 02010KT 4SM -RA BR OVC012
      TEMPO 2905/2907 2SM -RASN BR OVC007
     FM290800 05012KT 1SM -SN BR BKN006 OVC010=



000
FTUS45 KBOU 281138
TAFBJC
TAF
KBJC 281138Z 2812/2912 08006KT P6SM BKN025 OVC035
     FM281600 06012KT P6SM -SHRA BKN020 OVC030
      TEMPO 2816/2820 5SM -SHRA BKN015 OVC025
     FM282100 03008KT P6SM VCSH BKN035 OVC050
     FM290200 01010KT 6SM -RA BR OVC015
     FM290500 02010KT 4SM -RA BR OVC012
      TEMPO 2905/2907 2SM -RASN BR OVC007
     FM290800 05012KT 1SM -SN BR BKN006 OVC010=



000
FTUS45 KBOU 281138
TAFAPA
TAF
KAPA 281138Z 2812/2912 10005KT P6SM VCSH SCT025 OVC035
      TEMPO 2812/2814 6SM -SN BKN025
     FM281400 09007KT P6SM SCT020 BKN035 OVC050
     FM281600 09012KT P6SM -SHRA BKN025 OVC050
      TEMPO 2816/2820 5SM -SHRA BKN018 OVC030
     FM282100 12010KT P6SM VCSH BKN035 OVC050
     FM290200 08012KT 6SM -RA BR OVC015
     FM290500 07010KT 4SM -RA BR OVC012
      TEMPO 2905/2907 2SM -RASN BR OVC008
     FM290800 05012KT 1SM -SN BR BKN007 OVC012=



000
FTUS45 KBOU 280853 AAB
TAFBJC
TAF AMD
KBJC 280853Z 2809/2906 09005KT P6SM VCSH BKN035 OVC050
     FM281200 11006KT P6SM BKN035 OVC060
     FM281600 06012KT P6SM -SHRA BKN030 OVC050
      TEMPO 2817/2821 3SM -SHRA BKN015 OVC025
     FM282200 06012KT 2SM -SHRA BKN012 OVC020
     FM290200 05010KT 2SM -RASN BR SCT008 BKN014 OVC025
      TEMPO 2902/2906 1SM -SN BR SCT005 OVC012=



000
FTUS45 KBOU 280853 AAB
TAFBJC
TAF AMD
KBJC 280853Z 2809/2906 09005KT P6SM VCSH BKN035 OVC050
     FM281200 11006KT P6SM BKN035 OVC060
     FM281600 06012KT P6SM -SHRA BKN030 OVC050
      TEMPO 2817/2821 3SM -SHRA BKN015 OVC025
     FM282200 06012KT 2SM -SHRA BKN012 OVC020
     FM290200 05010KT 2SM -RASN BR SCT008 BKN014 OVC025
      TEMPO 2902/2906 1SM -SN BR SCT005 OVC012=



000
FTUS45 KBOU 280851 AAB
TAFAPA
TAF AMD
KAPA 280851Z 2809/2906 08005KT P6SM SCT025 OVC035
      TEMPO 2809/2813 4SM -SN BKN025
     FM281300 09008KT P6SM SCT020 BKN040
     FM281700 09012KT 5SM -SHRA BKN025 OVC050
      TEMPO 2818/2822 3SM -SHRA BKN015 OVC030
     FM282200 09012KT 5SM -SHRA BKN020 OVC040
     FM290200 06010KT 3SM -RA BR SCT014 OVC028
      TEMPO 2902/2906 1SM -RASN BR SCT007 OVC014=



000
FTUS45 KBOU 280851 AAB
TAFAPA
TAF AMD
KAPA 280851Z 2809/2906 08005KT P6SM SCT025 OVC035
      TEMPO 2809/2813 4SM -SN BKN025
     FM281300 09008KT P6SM SCT020 BKN040
     FM281700 09012KT 5SM -SHRA BKN025 OVC050
      TEMPO 2818/2822 3SM -SHRA BKN015 OVC030
     FM282200 09012KT 5SM -SHRA BKN020 OVC040
     FM290200 06010KT 3SM -RA BR SCT014 OVC028
      TEMPO 2902/2906 1SM -RASN BR SCT007 OVC014=



000
FTUS45 KBOU 280849 AAB
TAFDEN
TAF AMD
KDEN 280849Z 2809/2912 07006KT P6SM VCSH SCT030 OVC045
     FM281400 09008KT P6SM SCT030 OVC045
     FM281700 09012KT P6SM -SHRA BKN025 OVC050
      TEMPO 2818/2822 3SM -SHRA BKN015 OVC030
     FM282200 06012KT 5SM -SHRA BKN020 OVC040
     FM290200 06012KT 3SM -RA BR SCT015 OVC030
      TEMPO 2902/2906 1SM -RASN BR SCT008 OVC015
     FM290600 05012KT 1SM -SN BR BKN007 OVC012=



000
FTUS45 KBOU 280849 AAB
TAFDEN
TAF AMD
KDEN 280849Z 2809/2912 07006KT P6SM VCSH SCT030 OVC045
     FM281400 09008KT P6SM SCT030 OVC045
     FM281700 09012KT P6SM -SHRA BKN025 OVC050
      TEMPO 2818/2822 3SM -SHRA BKN015 OVC030
     FM282200 06012KT 5SM -SHRA BKN020 OVC040
     FM290200 06012KT 3SM -RA BR SCT015 OVC030
      TEMPO 2902/2906 1SM -RASN BR SCT008 OVC015
     FM290600 05012KT 1SM -SN BR BKN007 OVC012=



000
FTUS45 KBOU 280717 AAA
TAFBJC
TAF AMD
KBJC 280717Z 2807/2906 07008KT P6SM VCSH BKN035 OVC070
      TEMPO 2808/2811 5SM -SN BKN020 OVC030
     FM281100 11006KT P6SM VCFG BKN012 BKN025
      TEMPO 2811/2814 4SM BR BKN008
     FM281400 09006KT 3SM -SHRASN SCT008 BKN014 BKN030
     FM281800 06012KT 5SM -SHRA BKN020 OVC030
      TEMPO 2818/2822 3SM -SHRA BKN015 OVC025
     FM282200 06012KT 2SM -SHRA BKN012 OVC020
     FM290200 05010KT 2SM -RASN BR SCT008 BKN014 OVC025
      TEMPO 2902/2906 1SM -SN BR SCT005 OVC012=



000
FTUS45 KBOU 280716 AAA
TAFDEN
TAF AMD
KDEN 280716Z 2807/2912 05006KT P6SM VCSH SCT030 OVC045
      TEMPO 2808/2812 5SM -SN OVC025
     FM281400 09008KT 3SM -SHRASN SCT009 BKN015 OVC050
     FM281800 09012KT 5SM -SHRA BKN025 OVC050
      TEMPO 2818/2822 3SM -SHRA BKN015 OVC030
     FM282200 06012KT 5SM -SHRA BKN020 OVC040
     FM290200 06012KT 3SM -RA BR SCT015 OVC030
      TEMPO 2902/2906 1SM -RASN BR SCT008 OVC015
     FM290600 05012KT 1SM -SN BR BKN007 OVC012=



000
FTUS45 KBOU 280657 AAA
TAFAPA
TAF AMD
KAPA 280657Z 2807/2906 07007KT P6SM VCSH SCT030 BKN040
      TEMPO 2807/2809 -SN BKN030
     FM280900 11006KT P6SM VCFG SCT015 OVC030
      TEMPO 2809/2813 4SM -SHRASN BKN008
     FM281300 09008KT 3SM -SHRASN SCT009 BKN012 BKN040
     FM281800 09012KT 5SM -SHRA BKN025 OVC050
      TEMPO 2818/2822 3SM -SHRA BKN015 OVC030
     FM282200 09012KT 5SM -SHRA BKN020 OVC040
     FM290200 06010KT 3SM -RA BR SCT014 OVC028
      TEMPO 2902/2906 1SM -RASN BR SCT007 OVC014=



000
FTUS45 KBOU 280531
TAFAPA
TAF
KAPA 280531Z 2806/2906 07007KT P6SM VCSH SCT030 BKN040
      TEMPO 2806/2809 5SM -SHRA BKN025
     FM280900 11006KT P6SM VCFG SCT015 OVC030
      TEMPO 2809/2813 4SM -SHRASN BKN008
     FM281300 09008KT 3SM -SHRASN SCT009 BKN012 BKN040
     FM281800 09012KT 5SM -SHRA BKN025 OVC050
      TEMPO 2818/2822 3SM -SHRA BKN015 OVC030
     FM282200 09012KT 5SM -SHRA BKN020 OVC040
     FM290200 06010KT 3SM -RA BR SCT014 OVC028
      TEMPO 2902/2906 1SM -RASN BR SCT007 OVC014=



000
FTUS45 KBOU 280531
TAFBJC
TAF
KBJC 280531Z 2806/2906 07008KT P6SM VCSH BKN035 OVC070
      TEMPO 2806/2809 5SM -SHRA BKN020 OVC030
     FM280900 11006KT P6SM SCT012 BKN022 BKN035
     FM281100 11006KT P6SM VCFG BKN012 BKN025
      TEMPO 2811/2814 4SM BR BKN008
     FM281400 09006KT 3SM -SHRASN SCT008 BKN014 BKN030
     FM281800 06012KT 5SM -SHRA BKN020 OVC030
      TEMPO 2818/2822 3SM -SHRA BKN015 OVC025
     FM282200 06012KT 2SM -SHRA BKN012 OVC020
     FM290200 05010KT 2SM -RASN BR SCT008 BKN014 OVC025
      TEMPO 2902/2906 1SM -SN BR SCT005 OVC012=



000
FTUS45 KBOU 280531
TAFBJC
TAF
KBJC 280531Z 2806/2906 07008KT P6SM VCSH BKN035 OVC070
      TEMPO 2806/2809 5SM -SHRA BKN020 OVC030
     FM280900 11006KT P6SM SCT012 BKN022 BKN035
     FM281100 11006KT P6SM VCFG BKN012 BKN025
      TEMPO 2811/2814 4SM BR BKN008
     FM281400 09006KT 3SM -SHRASN SCT008 BKN014 BKN030
     FM281800 06012KT 5SM -SHRA BKN020 OVC030
      TEMPO 2818/2822 3SM -SHRA BKN015 OVC025
     FM282200 06012KT 2SM -SHRA BKN012 OVC020
     FM290200 05010KT 2SM -RASN BR SCT008 BKN014 OVC025
      TEMPO 2902/2906 1SM -SN BR SCT005 OVC012=



000
FTUS45 KBOU 280531
TAFDEN
TAF
KDEN 280531Z 2806/2912 06012KT P6SM VCSH BKN045 OVC080
     FM280700 07010KT P6SM VCSH BKN040 OVC050
      TEMPO 2807/2811 4SM -SHRASN BKN015 OVC030
     FM281400 09008KT 3SM -SHRASN SCT009 BKN015 OVC050
     FM281800 09012KT 5SM -SHRA BKN025 OVC050
      TEMPO 2818/2822 3SM -SHRA BKN015 OVC030
     FM282200 06012KT 5SM -SHRA BKN020 OVC040
     FM290200 06012KT 3SM -RA BR SCT015 OVC030
      TEMPO 2902/2906 1SM -RASN BR SCT008 OVC015
     FM290600 05012KT 1SM -SN BR BKN007 OVC012=



000
FTUS45 KBOU 280531
TAFAPA
TAF
KAPA 280531Z 2806/2906 07007KT P6SM VCSH SCT030 BKN040
      TEMPO 2806/2809 5SM -SHRA BKN025
     FM280900 11006KT P6SM VCFG SCT015 OVC030
      TEMPO 2809/2813 4SM -SHRASN BKN008
     FM281300 09008KT 3SM -SHRASN SCT009 BKN012 BKN040
     FM281800 09012KT 5SM -SHRA BKN025 OVC050
      TEMPO 2818/2822 3SM -SHRA BKN015 OVC030
     FM282200 09012KT 5SM -SHRA BKN020 OVC040
     FM290200 06010KT 3SM -RA BR SCT014 OVC028
      TEMPO 2902/2906 1SM -RASN BR SCT007 OVC014=



000
FTUS45 KBOU 280531
TAFDEN
TAF
KDEN 280531Z 2806/2912 06012KT P6SM VCSH BKN045 OVC080
     FM280700 07010KT P6SM VCSH BKN040 OVC050
      TEMPO 2807/2811 4SM -SHRASN BKN015 OVC030
     FM281400 09008KT 3SM -SHRASN SCT009 BKN015 OVC050
     FM281800 09012KT 5SM -SHRA BKN025 OVC050
      TEMPO 2818/2822 3SM -SHRA BKN015 OVC030
     FM282200 06012KT 5SM -SHRA BKN020 OVC040
     FM290200 06012KT 3SM -RA BR SCT015 OVC030
      TEMPO 2902/2906 1SM -RASN BR SCT008 OVC015
     FM290600 05012KT 1SM -SN BR BKN007 OVC012=



000
FTUS45 KBOU 280305 AAA
TAFDEN
TAF AMD
KDEN 280305Z 2803/2906 05010KT P6SM FEW080 SCT140
     FM280500 07010KT P6SM VCSH SCT030 BKN050
      TEMPO 2805/2809 BKN025
     FM280900 09006KT P6SM VCFG BKN012 OVC025
      TEMPO 2810/2814 4SM -SHRASN BKN007
     FM281400 09008KT 3SM -SHRASN SCT009 BKN015 OVC050
     FM281800 09012KT 5SM -SHRA BKN025 OVC050
      TEMPO 2818/2822 3SM -SHRA BKN015 OVC030
     FM282200 06012KT 5SM -SHRA BKN025 OVC050
     FM290200 06012KT 3SM -RA BR SCT015 OVC030
      TEMPO 2902/2906 1SM -RA BR SCT008 OVC015=



000
FTUS45 KBOU 272322
TAFDEN
TAF
KDEN 272322Z 2800/2906 03012KT P6SM SCT040 SCT070 BKN120
     FM280100 05012KT P6SM SCT040 BKN070
     FM280400 07010KT P6SM VCSH SCT030 BKN050
      TEMPO 2805/2809 BKN030
     FM280900 09006KT P6SM VCFG BKN015 OVC030
      TEMPO 2811/2815 4SM BR BKN007
     FM281500 09008KT P6SM VCSH BKN025 BKN050
     FM281800 09012KT 5SM -SHRA BKN025 OVC050
      TEMPO 2818/2822 3SM -SHRA BKN015 OVC030
     FM282200 06012KT 5SM -SHRA BKN025 OVC050
     FM290200 06012KT 3SM -RA BR SCT015 OVC030
      TEMPO 2902/2906 1SM -RA BR SCT008 OVC015=



000
FTUS45 KBOU 272322
TAFBJC
TAF
KBJC 272322Z 2800/2824 08006KT P6SM SCT040 BKN080
     FM280400 07008KT P6SM VCSH SCT030 BKN050
      TEMPO 2805/2809 5SM -SHRA BKN020 OVC030
     FM280900 11006KT P6SM SCT012 BKN022 BKN035
     FM281100 11006KT P6SM VCFG BKN012 BKN025
      TEMPO 2811/2815 4SM BR BKN008
     FM281500 09006KT P6SM VCSH BKN030 BKN050
     FM281800 06012KT 5SM -SHRA BKN025 OVC050
      TEMPO 2818/2822 3SM -SHRA BKN015 OVC030
     FM282200 06012KT 5SM -SHRA BKN025 OVC050=



000
FTUS45 KBOU 272322
TAFAPA
TAF
KAPA 272322Z 2800/2824 07008KT P6SM SCT050 BKN120
     FM280100 07008KT P6SM VCSH SCT050 BKN070
     FM280400 07010KT P6SM VCSH SCT025 BKN050
      TEMPO 2805/2809 5SM -SHRA BKN025
     FM281000 11006KT P6SM VCFG SCT015 OVC030
      TEMPO 2811/2815 5SM BR BKN010
     FM281500 09008KT P6SM VCSH BKN025 BKN050
     FM281800 09012KT 5SM -SHRA BKN025 OVC050
      TEMPO 2818/2822 3SM -SHRA BKN015 OVC030
     FM282200 09012KT 5SM -SHRA BKN025 OVC050=



000
FTUS45 KBOU 272204 AAD
TAFBJC
TAF AMD
KBJC 272204Z 2722/2818 12008KT P6SM SCT040 BKN080
     FM280100 06010KT P6SM BKN025 BKN040 OVC050
     FM280700 VRB05KT P6SM SCT012 BKN022 BKN035
     FM281100 34007KT P6SM VCFG BKN012 BKN025
      TEMPO 2811/2815 4SM BR BKN008
     FM281700 08006KT P6SM BKN030 BKN050=



000
FTUS45 KBOU 272203 AAC
TAFDEN
TAF AMD
KDEN 272203Z 2722/2824 04013KT P6SM SCT040 SCT070 BKN120
     FM280100 05011KT P6SM SCT035 BKN070
     FM280700 07008KT P6SM SCT030 BKN050
     FM281100 09006KT P6SM VCFG BKN015 OVC030
      TEMPO 2811/2815 4SM BR BKN007
     FM281500 07007KT P6SM BKN025 BKN050
     FM282000 10006KT P6SM VCSH BKN028 OVC045=



000
FTUS45 KBOU 272203 AAB
TAFAPA
TAF AMD
KAPA 272203Z 2722/2818 VRB05KT P6SM SCT080 SCT120
     FM272300 06011KT P6SM SCT060 SCT080
     FM280500 07008KT P6SM SCT030 BKN050
     FM281100 12006KT P6SM VCFG SCT018 OVC030
      TEMPO 2811/2815 5SM BR BKN010
     FM281700 14007KT P6SM BKN030 BKN050=



000
FTUS45 KBOU 272107 AAC
TAFBJC
TAF AMD
KBJC 272107Z 2721/2818 12008KT P6SM SCT035 BKN080
     FM272200 03010G18KT P6SM VCSH SCT030 BKN045
     FM280100 06010KT P6SM BKN025 BKN040 OVC050
     FM280700 VRB05KT P6SM SCT012 BKN022 BKN035
     FM281100 34007KT P6SM VCFG BKN012 BKN025
      TEMPO 2811/2815 4SM BR BKN008
     FM281700 08006KT P6SM BKN030 BKN050=



000
FTUS45 KBOU 272106 AAA
TAFAPA
TAF AMD
KAPA 272106Z 2721/2818 04007KT P6SM SCT030 SCT120
     FM272200 04013G20KT P6SM SCT035 SCT060 BKN100
     FM272300 06011KT P6SM VCSH SCT035 BKN060
     FM280500 07008KT P6SM SCT030 BKN050
     FM281100 12006KT P6SM VCFG SCT018 OVC030
      TEMPO 2811/2815 5SM BR BKN010
     FM281700 14007KT P6SM BKN030 BKN050=



000
FTUS45 KBOU 272105 AAB
TAFDEN
TAF AMD
KDEN 272105Z 2721/2824 06013G18KT P6SM SCT040 SCT070 BKN120
     FM272300 05011KT P6SM SCT035 BKN070
     FM280700 07008KT P6SM SCT030 BKN050
     FM281100 09006KT P6SM VCFG BKN015 OVC030
      TEMPO 2811/2815 4SM BR BKN007
     FM281500 07007KT P6SM BKN025 BKN050
     FM282000 10006KT P6SM VCSH BKN028 OVC045=



000
FTUS45 KBOU 271907 AAB
TAFBJC
TAF AMD
KBJC 271907Z 2719/2818 07008KT P6SM SCT035 BKN080
     FM272100 03010G18KT P6SM VCSH SCT030 BKN045
     FM280100 06010KT P6SM BKN025 BKN040 OVC050
     FM280700 VRB05KT P6SM SCT012 BKN022 BKN035
     FM281100 34007KT P6SM VCFG BKN012 BKN025
      TEMPO 2811/2815 4SM BR BKN008
     FM281700 08006KT P6SM BKN030 BKN050=



000
FTUS45 KBOU 271905 AAA
TAFDEN
TAF AMD
KDEN 271905Z 2719/2824 02013KT P6SM SCT040 BKN120
      TEMPO 2719/2721 BKN040
     FM272100 03013G18KT P6SM SCT040 SCT070 BKN120
     FM272300 05011KT P6SM SCT035 BKN070
     FM280700 07008KT P6SM SCT030 BKN050
     FM281100 09006KT P6SM VCFG BKN015 OVC030
      TEMPO 2811/2815 4SM BR BKN007
     FM281500 07007KT P6SM BKN025 BKN050
     FM282000 10006KT P6SM VCSH BKN028 OVC045=



000
FTUS45 KBOU 271905 AAA
TAFDEN
TAF AMD
KDEN 271905Z 2719/2824 02013KT P6SM SCT040 BKN120
      TEMPO 2719/2721 BKN040
     FM272100 03013G18KT P6SM SCT040 SCT070 BKN120
     FM272300 05011KT P6SM SCT035 BKN070
     FM280700 07008KT P6SM SCT030 BKN050
     FM281100 09006KT P6SM VCFG BKN015 OVC030
      TEMPO 2811/2815 4SM BR BKN007
     FM281500 07007KT P6SM BKN025 BKN050
     FM282000 10006KT P6SM VCSH BKN028 OVC045=



000
FTUS45 KBOU 271807 AAA
TAFBJC
TAF AMD
KBJC 271807Z 2718/2818 07008KT P6SM SCT015 BKN025 BKN040
     FM272100 03010G18KT P6SM VCSH SCT030 BKN045
     FM280100 06010KT P6SM BKN025 BKN040 OVC050
     FM280700 VRB05KT P6SM SCT012 BKN022 BKN035
     FM281100 34007KT P6SM VCFG BKN012 BKN025
      TEMPO 2811/2815 4SM BR BKN008
     FM281700 08006KT P6SM BKN030 BKN050=



000
FTUS45 KBOU 271739
TAFAPA
TAF
KAPA 271739Z 2718/2818 07011KT P6SM SCT030 SCT120
     FM272100 04013G20KT P6SM SCT035 SCT060 BKN100
     FM272300 06011KT P6SM VCSH SCT035 BKN060
     FM280500 07008KT P6SM SCT030 BKN050
     FM281100 12006KT P6SM VCFG SCT018 OVC030
      TEMPO 2811/2815 5SM BR BKN010
     FM281700 14007KT P6SM BKN030 BKN050=



000
FTUS45 KBOU 271739
TAFBJC
TAF
KBJC 271739Z 2718/2818 05006KT P6SM SCT015 BKN050
     FM272000 02012G20KT P6SM VCSH SCT025 BKN045
     FM280100 06010KT P6SM SCT040 BKN090
     FM280700 VRB05KT P6SM SCT012 BKN025 BKN040
     FM281100 34007KT P6SM VCFG BKN012 BKN025
      TEMPO 2811/2815 4SM BR BKN008
     FM281700 08006KT P6SM BKN030 BKN050=



000
FTUS45 KBOU 271739
TAFDEN
TAF
KDEN 271739Z 2718/2824 36013G24KT P6SM SCT030 SCT200
     FM272100 03013G18KT P6SM SCT040 SCT070 BKN120
     FM272300 05011KT P6SM SCT035 BKN070
     FM280700 07008KT P6SM SCT030 BKN050
     FM281100 09006KT P6SM VCFG BKN015 OVC030
      TEMPO 2811/2815 4SM BR BKN007
     FM281500 07007KT P6SM BKN025 BKN050
     FM282000 10006KT P6SM VCSH BKN028 OVC045=



000
FTUS45 KBOU 271507 AAA
TAFDEN
TAF AMD
KDEN 271507Z 2715/2818 06009KT P6SM SCT020 SCT120
     FM271800 36014G24KT P6SM FEW040 SCT100 SCT220
     FM272100 04013KT P6SM SCT040 BKN080
     FM280100 02012KT P6SM SCT035 BKN060
     FM280700 08009KT P6SM SCT015 BKN030
     FM281100 07009KT P6SM VCSH BKN015 OVC030=



000
FTUS45 KBOU 271311 AAA
TAFBJC
TAF AMD
KBJC 271311Z 2713/2812 VRB05KT P6SM SCT015 SCT090
     FM271500 03005KT P6SM SCT020 SCT080
     FM271900 01012G22KT P6SM VCSH SCT045 BKN100
     FM280100 03011KT P6SM SCT040 BKN090
     FM280700 08009KT P6SM SCT015 BKN030
     FM281100 07009KT P6SM VCSH BKN012 OVC020=



000
FTUS45 KBOU 271311 AAA
TAFBJC
TAF AMD
KBJC 271311Z 2713/2812 VRB05KT P6SM SCT015 SCT090
     FM271500 03005KT P6SM SCT020 SCT080
     FM271900 01012G22KT P6SM VCSH SCT045 BKN100
     FM280100 03011KT P6SM SCT040 BKN090
     FM280700 08009KT P6SM SCT015 BKN030
     FM281100 07009KT P6SM VCSH BKN012 OVC020=



000
FTUS45 KBOU 271139
TAFBJC
TAF
KBJC 271139Z 2712/2812 VRB05KT P6SM SCT015 SCT090
      TEMPO 2712/2714 BKN014
     FM271400 03005KT P6SM SCT020 SCT080
     FM271900 01012G22KT P6SM VCSH SCT045 BKN100
     FM280100 03011KT P6SM SCT040 BKN090
     FM280700 08009KT P6SM SCT015 BKN030
     FM281100 07009KT P6SM VCSH BKN012 OVC020=



000
FTUS45 KBOU 271139
TAFDEN
TAF
KDEN 271139Z 2712/2818 23006KT P6SM FEW020 SCT120 SCT220
     FM271500 05007KT P6SM FEW030 SCT120 SCT220
     FM271800 35014G24KT P6SM SCT050 SCT110 SCT200
     FM272100 35012G20KT P6SM SCT050 BKN100
     FM280100 02012KT P6SM SCT040 BKN090
     FM280700 08009KT P6SM SCT015 BKN030
     FM281100 07009KT P6SM VCSH BKN015 OVC030=



000
FTUS45 KBOU 271139
TAFAPA
TAF
KAPA 271139Z 2712/2812 24004KT P6SM FEW015 SCT030 SCT120
     FM271500 05007KT P6SM FEW030 SCT120 SCT220
     FM271800 35014G24KT P6SM SCT050 SCT110 SCT200
     FM272100 35012G20KT P6SM SCT050 BKN100
     FM280100 02012KT P6SM SCT040 BKN090
     FM280600 08009KT P6SM SCT015 BKN030
     FM281000 07009KT P6SM VCSH BKN012 OVC020=



000
FTUS45 KBOU 270909 AAC
TAFBJC
TAF AMD
KBJC 270909Z 2709/2806 VRB04KT P6SM VCSH BKN015 OVC035
     FM271000 VRB05KT P6SM SCT040 BKN080
     FM271500 33008KT P6SM SCT040 SCT080
     FM271900 01014G24KT P6SM VCSH SCT045 BKN100
     FM280200 04006KT P6SM VCSH SCT015 BKN030=



000
FTUS45 KBOU 270909 AAC
TAFDEN
TAF AMD
KDEN 270909Z 2709/2812 34004KT P6SM SCT035 BKN050
     FM271100 26005KT P6SM SCT040 BKN120
     FM271400 33010G18KT P6SM SCT060 BKN200
     FM271900 35014G24KT P6SM SCT050 BKN100
     FM280100 02012KT P6SM BKN040 BKN100
     FM280700 16006KT P6SM VCSH SCT015 BKN030=



000
FTUS45 KBOU 270909 AAA
TAFAPA
TAF AMD
KAPA 270909Z 2709/2806 34005KT P6SM BKN014 OVC025
     FM271100 26005KT P6SM SCT030 BKN060
     FM271500 35012G18KT P6SM SCT060 SCT140
     FM271900 35014G22KT P6SM SCT045 BKN100
     FM272300 02007KT P6SM BKN040 BKN100=



000
FTUS45 KBOU 270812 AAB
TAFDEN
TAF AMD
KDEN 270812Z 2708/2812 03010KT P6SM SCT015 OVC030
      TEMPO 2708/2710 5SM -SN BKN012
     FM271000 36006KT P6SM SCT035 BKN080
     FM271200 28007KT P6SM SCT040 BKN120
     FM271400 33010G18KT P6SM SCT060 BKN200
     FM271900 35014G24KT P6SM SCT050 BKN100
     FM280100 02012KT P6SM BKN040 BKN100
     FM280700 16006KT P6SM VCSH SCT015 BKN030=



000
FTUS45 KBOU 270810 AAB
TAFBJC
TAF AMD
KBJC 270810Z 2708/2806 07006KT 5SM -SN BR OVC015
      TEMPO 2708/2710 2SM -SHSN OVC012
     FM271000 31007KT P6SM SCT040 BKN080
     FM271500 33008KT P6SM SCT040 SCT080
     FM271900 01014G24KT P6SM VCSH SCT045 BKN100
     FM280200 04006KT P6SM VCSH SCT015 BKN030=



000
FTUS45 KBOU 270724 AAA
TAFDEN
TAF AMD
KDEN 270724Z 2707/2812 03010KT P6SM SCT015 OVC030
      TEMPO 2707/2709 -SHSN BKN012
     FM270900 36006KT P6SM SCT035 BKN080
     FM271200 28007KT P6SM SCT040 BKN120
     FM271400 33010G18KT P6SM SCT060 BKN200
     FM271900 35014G24KT P6SM SCT050 BKN100
     FM280100 02012KT P6SM BKN040 BKN100
     FM280700 16006KT P6SM VCSH SCT015 BKN030=



    US Dept of Commerce
    National Oceanic and Atmospheric Administration
    National Weather Service
    1325 East West Highway
    Silver Spring, MD 20910
    Page Author: NWS Internet Services Team
Disclaimer
Information Quality
Credits
Glossary
Privacy Policy
Freedom of Information Act (FOIA)
About Us
Career Opportunities